http://www.schuttertalwetter.de (Christian Eisenberg)
Wetterdaten: aktuell Sonntag, 22.04.2018 10:35
Datum Zeit Temp. A. Luftdruck Regen Wind Richtung Richtung Sonnenschein Solar Windben
22.04.2018 10:35 23,0 C 1015,8 hPa 0,0 l/m 9,7 km/h (2 Bft) S 180 60 min 548 W/m 16,1 km/h (3 Bft)
22.04.2018 09:35 18,3 C 1015,9 hPa 0,0 l/m 1,6 km/h (1 Bft) SO 135 60 min 420 W/m 3,2 km/h (1 Bft)
22.04.2018 08:35 13,4 C 1016,1 hPa 0,0 l/m 0,0 km/h (0 Bft) N 0 40 min 265 W/m 0,0 km/h (0 Bft)
22.04.2018 07:35 9,7 C 1016,1 hPa 0,0 l/m 0,0 km/h (0 Bft) O 90 0 min 39 W/m 1,6 km/h (1 Bft)
22.04.2018 06:35 9,0 C 1015,4 hPa 0,0 l/m 0,0 km/h (0 Bft) S-SO 157 0 min 9 W/m 3,2 km/h (1 Bft)
22.04.2018 05:35 10,1 C 1015,5 hPa 0,0 l/m 0,0 km/h (0 Bft) S-SO 157 0 min 0 W/m 1,6 km/h (1 Bft)
22.04.2018 04:35 10,5 C 1016,0 hPa 0,0 l/m 1,6 km/h (1 Bft) S-SO 157 0 min 0 W/m 3,2 km/h (1 Bft)
22.04.2018 03:35 10,8 C 1016,1 hPa 0,0 l/m 0,0 km/h (0 Bft) S-SO 157 0 min 0 W/m 1,6 km/h (1 Bft)
22.04.2018 02:35 11,0 C 1016,2 hPa 0,0 l/m 3,2 km/h (1 Bft) S-SW 202 0 min 0 W/m 4,8 km/h (1 Bft)
22.04.2018 01:35 11,6 C 1016,7 hPa 0,0 l/m 1,6 km/h (1 Bft) S-SW 202 0 min 0 W/m 3,2 km/h (1 Bft)
22.04.2018 00:35 11,9 C 1016,9 hPa 0,0 l/m 1,6 km/h (1 Bft) S-SW 202 0 min 0 W/m 3,2 km/h (1 Bft)
21.04.2018 23:35 13,0 C 1017,0 hPa 0,0 l/m 1,6 km/h (1 Bft) S-SW 202 0 min 0 W/m 3,2 km/h (1 Bft)
21.04.2018 22:35 14,3 C 1016,9 hPa 0,0 l/m 0,0 km/h (0 Bft) S-SW 202 0 min 0 W/m 3,2 km/h (1 Bft)
21.04.2018 21:35 15,4 C 1016,8 hPa 0,0 l/m 1,6 km/h (1 Bft) S-SW 202 0 min 0 W/m 3,2 km/h (1 Bft)
21.04.2018 20:35 17,6 C 1016,6 hPa 0,0 l/m 0,0 km/h (0 Bft) N 0 5 min 0 W/m 0,0 km/h (0 Bft)
21.04.2018 19:35 19,3 C 1016,2 hPa 0,0 l/m 1,6 km/h (1 Bft) S-SW 202 20 min 33 W/m 3,2 km/h (1 Bft)
21.04.2018 18:35 26,8 C 1016,6 hPa 0,0 l/m 0,0 km/h (0 Bft) NW 315 60 min 214 W/m 3,2 km/h (1 Bft)
21.04.2018 17:35 27,3 C 1016,9 hPa 0,0 l/m 4,8 km/h (1 Bft) NW 315 60 min 378 W/m 9,7 km/h (2 Bft)
21.04.2018 16:35 28,0 C 1017,2 hPa 0,0 l/m 3,2 km/h (1 Bft) W-NW 292 60 min 564 W/m 8,0 km/h (2 Bft)
21.04.2018 15:35 28,0 C 1017,7 hPa 0,0 l/m 6,4 km/h (2 Bft) N 360 60 min 664 W/m 12,9 km/h (3 Bft)
21.04.2018 14:35 27,6 C 1018,5 hPa 0,0 l/m 1,6 km/h (1 Bft) N-NW 337 60 min 759 W/m 8,0 km/h (2 Bft)
21.04.2018 13:35 26,9 C 1018,9 hPa 0,0 l/m 4,8 km/h (1 Bft) NW 315 60 min 770 W/m 9,7 km/h (2 Bft)
21.04.2018 12:35 26,2 C 1019,6 hPa 0,0 l/m 3,2 km/h (1 Bft) N 360 60 min 754 W/m 6,4 km/h (2 Bft)
21.04.2018 11:35 24,8 C 1020,1 hPa 0,0 l/m 1,6 km/h (1 Bft) N 360 35 min 687 W/m 4,8 km/h (1 Bft)
21.04.2018 11:00 23,4 C 1020,5 hPa 0,0 l/m 1,6 km/h (1 Bft) N-NW 337 0 min 629 W/m 3,2 km/h (1 Bft)
_ Min-Zeit 06:50 06:30 - 10:00 - - - - 09:55
Minimum _ 8,6 C 1015,3 hPa - 0,0 km/h (0 Bft) - - - - 0,0 km/h (0 Bft)
_ Max-Zeit 15:50 11:00 10:35 10:10 - - 10:35 13:40 10:10
Maximum _ 28,2 C 1020,5 hPa 0,0 l/m 11,3 km/h
S-SO (2 Bft)
- - 5 min 798 W/m 20,9 km/h
S-SO (4 Bft)
Durchschnitt _ 18,4 C 1017,2 hPa #0,0 l/m 1,9 km/h (1 Bft) S-SW - #2:40 h 247 W/m 4,8 km/h (1 Bft)